Lavista, Nebraska
Current Conditions -  °F | °C
As of 11:15 AM on Thursday 23 Oct 2014 (Local Time) from KMLE Reporting Station
Overcast Overcast  
Wind Chill: 15°   Ceiling: 600
Heat Index: 15°   Visibility: 7mi
Dew Point: 13°   Wind: 0mph
Humidity: 86%   Direction: NA
Pressure: 30.08"   Gusts: NA
Location:  41.166°N, 96.0444°W
Report Text: KMLE 231615Z AUTO 00000KT 7SM OVC006 15/13 A3008 RMK AO2 T01530129
Loading
Personal Weather Stations






























Interactive Weather Map
Tropical Storm Tracking
New forecast layout! Learn more

10-Day Weather Forecast

Advertisements
Track Severe Weather on mobile